createdAt,value
2023-04-17T00:00:44.311Z,9.20
2023-04-17T00:03:12.186Z,9.10
2023-04-17T00:05:40.170Z,9.00
2023-04-17T00:08:07.062Z,9.00
2023-04-17T00:10:35.544Z,9.00
2023-04-17T00:13:02.282Z,9.10
2023-04-17T00:15:29.069Z,9.20
2023-04-17T00:17:56.005Z,9.20
2023-04-17T00:20:22.847Z,9.30
2023-04-17T00:22:49.612Z,9.30
2023-04-17T00:25:16.351Z,9.30
2023-04-17T00:27:43.062Z,9.40
2023-04-17T00:30:11.082Z,9.40
2023-04-17T00:32:37.893Z,9.40
2023-04-17T00:35:09.094Z,9.40
2023-04-17T00:37:36.123Z,9.30
2023-04-17T00:40:09.862Z,9.20
2023-04-17T00:42:36.621Z,9.10
2023-04-17T00:45:05.343Z,9.00
2023-04-17T00:47:33.225Z,9.10
2023-04-17T00:49:59.979Z,9.10
2023-04-17T00:52:30.126Z,9.00
2023-04-17T00:55:00.065Z,9.00
2023-04-17T00:57:27.424Z,9.00
2023-04-17T00:59:57.267Z,8.90
2023-04-17T01:02:25.105Z,9.00
2023-04-17T01:04:52.053Z,8.90
2023-04-17T01:07:24.331Z,9.00
2023-04-17T01:09:51.252Z,9.00
2023-04-17T01:12:18.910Z,9.00
2023-04-17T01:14:45.928Z,9.00
2023-04-17T01:17:14.408Z,9.10
2023-04-17T01:19:42.082Z,9.10
2023-04-17T01:22:08.919Z,9.20
2023-04-17T01:24:36.942Z,9.20
2023-04-17T01:27:04.660Z,9.20
2023-04-17T01:29:33.474Z,9.20
2023-04-17T01:32:00.312Z,9.20
2023-04-17T01:34:27.287Z,9.20
2023-04-17T01:36:54.063Z,9.20
2023-04-17T01:39:20.971Z,9.20
2023-04-17T01:41:47.736Z,9.10
2023-04-17T01:44:14.783Z,9.10
2023-04-17T01:46:41.595Z,9.10
2023-04-17T01:49:10.529Z,9.10
2023-04-17T01:51:37.392Z,9.00
2023-04-17T01:54:04.285Z,9.10
2023-04-17T01:56:31.193Z,8.90
2023-04-17T01:58:57.921Z,8.90
2023-04-17T02:01:24.760Z,8.90
2023-04-17T02:03:51.693Z,8.90
2023-04-17T02:06:18.542Z,9.00
2023-04-17T02:08:45.287Z,8.90
2023-04-17T02:11:13.527Z,8.90
2023-04-17T02:13:40.380Z,9.00
2023-04-17T02:16:07.623Z,9.10
2023-04-17T02:18:34.381Z,9.00
2023-04-17T02:21:01.063Z,9.00
2023-04-17T02:23:28.047Z,9.00
2023-04-17T02:25:54.787Z,9.00
2023-04-17T02:28:21.513Z,8.90
2023-04-17T02:30:48.295Z,9.00
2023-04-17T02:33:15.303Z,9.00
2023-04-17T02:35:42.170Z,9.00
2023-04-17T02:38:09.112Z,8.90
2023-04-17T02:40:35.825Z,8.90
2023-04-17T02:43:02.717Z,9.00
2023-04-17T02:45:29.485Z,9.10
2023-04-17T02:47:56.586Z,9.00
2023-04-17T02:50:23.539Z,9.00
2023-04-17T02:52:50.278Z,9.00
2023-04-17T02:55:17.418Z,9.00
2023-04-17T02:57:44.158Z,9.10
2023-04-17T03:00:14.129Z,9.10
2023-04-17T03:02:41.396Z,9.10
2023-04-17T03:05:09.210Z,9.10
2023-04-17T03:07:35.914Z,9.20
2023-04-17T03:10:03.223Z,9.20
2023-04-17T03:12:29.949Z,9.30
2023-04-17T03:14:56.655Z,9.30
2023-04-17T03:17:23.457Z,9.30
2023-04-17T03:19:50.236Z,9.30
2023-04-17T03:22:17.024Z,9.20
2023-04-17T03:24:44.078Z,9.20
2023-04-17T03:27:10.914Z,9.20
2023-04-17T03:29:37.799Z,9.20
2023-04-17T03:32:04.904Z,9.20
2023-04-17T03:34:34.485Z,9.20
2023-04-17T03:37:01.204Z,9.20
2023-04-17T03:39:27.924Z,9.30
2023-04-17T03:41:56.645Z,9.30
2023-04-17T03:44:23.473Z,9.20
2023-04-17T03:46:52.272Z,9.30
2023-04-17T03:49:19.442Z,9.20
2023-04-17T03:51:46.230Z,9.30
2023-04-17T03:54:12.991Z,9.30
2023-04-17T03:56:39.734Z,9.30
2023-04-17T03:59:06.445Z,9.20
2023-04-17T04:01:34.266Z,9.30
2023-04-17T04:04:01.630Z,9.30
2023-04-17T04:06:29.848Z,9.20
2023-04-17T04:08:59.578Z,9.20
2023-04-17T04:11:26.364Z,9.20
2023-04-17T04:13:53.160Z,9.20
2023-04-17T04:16:20.016Z,9.20
2023-04-17T04:18:46.989Z,9.20
2023-04-17T04:21:13.723Z,9.10
2023-04-17T04:23:43.653Z,9.20
2023-04-17T04:26:11.751Z,9.20
2023-04-17T04:28:38.521Z,9.30
2023-04-17T04:31:05.785Z,9.10
2023-04-17T04:33:39.643Z,9.00
2023-04-17T04:36:06.773Z,9.10
2023-04-17T04:38:33.510Z,9.10
2023-04-17T04:41:10.034Z,9.10
2023-04-17T04:43:37.285Z,9.10
2023-04-17T04:46:04.156Z,9.10
2023-04-17T04:48:31.972Z,9.10
2023-04-17T04:50:58.944Z,9.00
2023-04-17T04:53:25.873Z,9.00
2023-04-17T04:55:52.718Z,9.10
2023-04-17T04:58:20.249Z,9.00
2023-04-17T05:00:47.342Z,9.10
2023-04-17T05:03:14.345Z,9.00
2023-04-17T05:05:43.209Z,9.00
2023-04-17T05:08:09.955Z,8.90
2023-04-17T05:10:36.903Z,8.90
2023-04-17T05:13:03.623Z,8.90
2023-04-17T05:15:38.865Z,8.90
2023-04-17T05:18:05.640Z,8.80
2023-04-17T05:20:32.494Z,8.80
2023-04-17T05:22:59.284Z,8.70
2023-04-17T05:25:27.016Z,8.70
2023-04-17T05:27:59.816Z,8.70
2023-04-17T05:30:26.574Z,8.80
2023-04-17T05:32:54.759Z,8.80
2023-04-17T05:35:21.873Z,8.90
2023-04-17T05:37:48.713Z,8.80
2023-04-17T05:40:16.695Z,8.90
2023-04-17T05:42:43.467Z,8.90
2023-04-17T05:45:14.990Z,9.00
2023-04-17T05:47:42.189Z,8.90
2023-04-17T05:50:09.782Z,9.00
2023-04-17T05:52:38.816Z,8.90
2023-04-17T05:55:07.433Z,8.80
2023-04-17T05:57:34.276Z,8.80
2023-04-17T06:00:01.060Z,8.80
2023-04-17T06:02:28.223Z,8.90
2023-04-17T06:04:55.339Z,8.90
2023-04-17T06:07:23.596Z,8.80
2023-04-17T06:09:55.467Z,8.60
2023-04-17T06:12:22.259Z,8.70
2023-04-17T06:14:50.360Z,8.80
2023-04-17T06:17:17.123Z,8.80
2023-04-17T06:19:43.899Z,8.90
2023-04-17T06:22:10.592Z,8.80
2023-04-17T06:24:37.991Z,8.80
2023-04-17T06:27:04.875Z,8.80
2023-04-17T06:29:31.599Z,8.70
2023-04-17T06:31:58.410Z,8.80
2023-04-17T06:34:25.376Z,8.80
2023-04-17T06:36:53.735Z,8.90
2023-04-17T06:39:22.031Z,8.80
2023-04-17T06:41:50.261Z,8.90
2023-04-17T06:44:16.988Z,8.90
2023-04-17T06:46:44.431Z,9.00
2023-04-17T06:49:11.914Z,8.90
2023-04-17T06:51:39.016Z,9.00
2023-04-17T06:54:05.909Z,9.00
2023-04-17T06:56:32.712Z,8.90
2023-04-17T06:59:00.734Z,9.00
2023-04-17T07:01:29.253Z,8.90
2023-04-17T07:03:56.221Z,8.90
2023-04-17T07:06:24.224Z,8.80
2023-04-17T07:08:55.636Z,8.80
2023-04-17T07:11:23.758Z,8.80
2023-04-17T07:13:50.560Z,8.90
2023-04-17T07:16:17.441Z,8.90
2023-04-17T07:18:44.366Z,8.70
2023-04-17T07:21:11.116Z,8.80
2023-04-17T07:23:37.916Z,8.80
2023-04-17T07:26:04.783Z,8.80
2023-04-17T07:28:34.125Z,8.80
2023-04-17T07:31:01.082Z,8.80
2023-04-17T07:33:27.885Z,8.80
2023-04-17T07:35:54.677Z,8.80
2023-04-17T07:38:21.521Z,8.80
2023-04-17T07:40:48.238Z,8.90
2023-04-17T07:43:15.493Z,8.90
2023-04-17T07:45:42.224Z,8.90
2023-04-17T07:48:09.505Z,8.90
2023-04-17T07:50:36.307Z,9.00
2023-04-17T07:53:03.029Z,9.00
2023-04-17T07:55:33.085Z,9.20
2023-04-17T07:58:01.617Z,9.10
2023-04-17T08:00:28.391Z,9.10
2023-04-17T08:02:55.461Z,9.20
2023-04-17T08:05:23.901Z,9.20
2023-04-17T08:07:50.808Z,9.30
2023-04-17T08:10:17.586Z,9.40
2023-04-17T08:12:44.339Z,9.40
2023-04-17T08:15:11.883Z,9.50
2023-04-17T08:17:38.738Z,9.50
2023-04-17T08:20:11.192Z,9.50
2023-04-17T08:22:43.366Z,9.60
2023-04-17T08:25:11.635Z,9.60
2023-04-17T08:27:41.449Z,9.70
2023-04-17T08:30:13.848Z,9.80
2023-04-17T08:32:48.935Z,9.70
2023-04-17T08:35:17.177Z,9.80
2023-04-17T08:37:46.742Z,9.60
2023-04-17T08:40:15.311Z,9.70
2023-04-17T08:42:43.049Z,9.70
2023-04-17T08:45:13.310Z,9.80
2023-04-17T08:47:43.248Z,9.90
2023-04-17T08:50:17.553Z,10.00
2023-04-17T08:52:47.851Z,10.00
2023-04-17T08:55:19.535Z,10.10
2023-04-17T08:58:01.433Z,10.10
2023-04-17T09:00:34.656Z,10.20
2023-04-17T09:03:04.518Z,10.20
2023-04-17T09:05:39.125Z,10.20
2023-04-17T09:08:20.347Z,10.20
2023-04-17T09:10:50.668Z,10.20
2023-04-17T09:13:22.292Z,10.30
2023-04-17T09:16:20.733Z,10.20
2023-04-17T09:18:49.515Z,10.30
2023-04-17T09:21:18.967Z,10.40
2023-04-17T09:23:56.106Z,10.60
2023-04-17T09:26:28.038Z,10.70
2023-04-17T09:29:14.425Z,10.70
2023-04-17T09:31:42.913Z,10.90
2023-04-17T09:34:16.228Z,10.90
2023-04-17T09:36:44.298Z,10.80
2023-04-17T09:39:26.800Z,10.80
2023-04-17T09:42:04.331Z,10.80
2023-04-17T09:44:31.402Z,10.90
2023-04-17T09:47:01.339Z,11.00
2023-04-17T09:49:56.214Z,11.00
2023-04-17T09:52:23.787Z,11.00
2023-04-17T09:54:54.046Z,11.10
2023-04-17T09:57:21.393Z,11.30
2023-04-17T09:59:49.187Z,11.50
2023-04-17T10:02:19.408Z,11.80
2023-04-17T10:04:48.474Z,12.20
2023-04-17T10:07:16.839Z,12.60
2023-04-17T10:09:45.851Z,12.50
2023-04-17T10:12:17.575Z,12.40
2023-04-17T10:14:49.081Z,12.60
2023-04-17T10:17:34.855Z,12.80
2023-04-17T10:20:23.215Z,13.00
2023-04-17T10:22:56.368Z,13.00
2023-04-17T10:25:41.730Z,12.90
2023-04-17T10:28:08.485Z,12.80
2023-04-17T10:30:55.815Z,12.70
2023-04-17T10:33:28.627Z,12.80
2023-04-17T10:35:55.584Z,12.60
2023-04-17T10:38:43.895Z,12.60
2023-04-17T10:41:12.250Z,12.70
2023-04-17T10:43:44.574Z,12.80
2023-04-17T10:46:14.192Z,13.00
2023-04-17T10:48:52.933Z,13.20
2023-04-17T10:51:28.945Z,13.30
2023-04-17T10:54:26.128Z,13.40
2023-04-17T10:56:55.766Z,13.60
2023-04-17T10:59:26.284Z,13.60
2023-04-17T11:02:01.531Z,13.60
2023-04-17T11:04:33.542Z,13.70
2023-04-17T11:07:00.889Z,13.60
2023-04-17T11:09:36.179Z,13.70
2023-04-17T11:12:03.178Z,13.80
2023-04-17T11:14:30.793Z,13.90
2023-04-17T11:16:57.703Z,14.00
2023-04-17T11:19:26.169Z,14.10
2023-04-17T11:21:58.345Z,14.20
2023-04-17T11:24:32.704Z,14.20
2023-04-17T11:27:01.802Z,14.10
2023-04-17T11:29:29.333Z,14.00
2023-04-17T11:31:58.386Z,14.00
2023-04-17T11:34:28.162Z,14.20
2023-04-17T11:37:00.695Z,14.10
2023-04-17T11:39:34.714Z,14.20
2023-04-17T11:42:05.079Z,14.10
2023-04-17T11:44:31.842Z,14.20
2023-04-17T11:46:59.578Z,14.20
2023-04-17T11:49:27.822Z,14.20
2023-04-17T11:51:58.729Z,14.20
2023-04-17T11:57:18.985Z,14.50
2023-04-17T11:59:46.042Z,14.60
2023-04-17T12:02:15.469Z,14.60
2023-04-17T12:04:42.660Z,14.80
2023-04-17T12:07:24.986Z,15.20
2023-04-17T12:09:57.431Z,15.20
2023-04-17T12:12:24.277Z,15.10
2023-04-17T12:14:51.211Z,15.20
2023-04-17T12:17:17.956Z,15.30
2023-04-17T12:19:45.599Z,15.30
2023-04-17T12:22:12.327Z,15.50
2023-04-17T12:24:39.107Z,15.60
2023-04-17T12:27:05.808Z,15.70
2023-04-17T12:29:43.934Z,15.90
2023-04-17T12:32:12.148Z,15.70
2023-04-17T12:34:39.077Z,15.80
2023-04-17T12:37:09.096Z,15.80
2023-04-17T12:39:35.863Z,15.90
2023-04-17T12:42:02.611Z,15.90
2023-04-17T12:44:29.869Z,16.00
2023-04-17T12:46:57.037Z,16.20
2023-04-17T12:49:23.952Z,16.20
2023-04-17T12:51:51.162Z,16.30
2023-04-17T12:54:18.078Z,16.40
2023-04-17T12:56:44.818Z,16.30
2023-04-17T12:59:11.823Z,16.20
2023-04-17T13:01:38.770Z,16.30
2023-04-17T13:04:05.957Z,16.50
2023-04-17T13:06:33.613Z,16.40
2023-04-17T13:09:00.536Z,16.40
2023-04-17T13:11:27.569Z,16.30
2023-04-17T13:13:54.357Z,16.10
2023-04-17T13:16:21.240Z,16.20
2023-04-17T13:18:48.079Z,16.50
2023-04-17T13:21:14.816Z,16.60
2023-04-17T13:23:41.529Z,17.00
2023-04-17T13:26:08.308Z,16.70
2023-04-17T13:28:35.945Z,16.50
2023-04-17T13:31:02.756Z,16.60
2023-04-17T13:33:29.531Z,16.20
2023-04-17T13:35:56.286Z,16.40
2023-04-17T13:38:26.258Z,16.20
2023-04-17T13:40:57.985Z,16.30
2023-04-17T13:43:28.888Z,16.30
2023-04-17T13:45:56.926Z,16.50
2023-04-17T13:48:24.294Z,16.80
2023-04-17T13:50:54.061Z,16.90
2023-04-17T13:53:20.871Z,17.20
2023-04-17T13:55:48.535Z,17.00
2023-04-17T13:58:15.513Z,16.70
2023-04-17T14:00:42.440Z,16.60
2023-04-17T14:03:10.205Z,16.50
2023-04-17T14:05:37.100Z,16.70
2023-04-17T14:08:04.170Z,16.90
2023-04-17T14:10:30.956Z,17.10
2023-04-17T14:12:57.651Z,16.80
2023-04-17T14:15:24.459Z,16.70
2023-04-17T14:17:51.291Z,16.60
2023-04-17T14:20:20.018Z,16.40
2023-04-17T14:22:47.254Z,16.80
2023-04-17T14:25:19.127Z,16.90
2023-04-17T14:27:45.960Z,16.80
2023-04-17T14:30:15.451Z,16.40
2023-04-17T14:32:42.241Z,16.20
2023-04-17T14:35:09.566Z,16.30
2023-04-17T14:37:38.942Z,16.50
2023-04-17T14:40:07.815Z,16.30
2023-04-17T14:42:47.038Z,16.20
2023-04-17T14:45:20.459Z,16.30
2023-04-17T14:47:47.298Z,16.10
2023-04-17T14:50:14.172Z,16.00
2023-04-17T14:52:40.979Z,16.00
2023-04-17T14:55:08.442Z,15.90
2023-04-17T14:57:35.214Z,16.00
2023-04-17T15:00:02.062Z,15.90
2023-04-17T15:02:28.876Z,16.00
2023-04-17T15:04:55.734Z,16.20
2023-04-17T15:07:22.499Z,16.30
2023-04-17T15:09:50.356Z,16.50
2023-04-17T15:12:17.068Z,16.90
2023-04-17T15:14:43.750Z,16.80
2023-04-17T15:17:10.550Z,16.80
2023-04-17T15:19:37.580Z,16.90
2023-04-17T15:22:04.362Z,16.80
2023-04-17T15:24:32.418Z,16.80
2023-04-17T15:26:59.214Z,17.10
2023-04-17T15:29:25.944Z,17.10
2023-04-17T15:31:53.373Z,17.20
2023-04-17T15:34:20.272Z,17.30
2023-04-17T15:36:47.578Z,17.20
2023-04-17T15:39:15.625Z,16.90
2023-04-17T15:41:42.462Z,16.60
2023-04-17T15:44:09.273Z,16.30
2023-04-17T15:46:39.293Z,16.20
2023-04-17T15:49:09.269Z,16.20
2023-04-17T15:51:36.494Z,16.10
2023-04-17T15:54:03.579Z,15.90
2023-04-17T15:56:30.484Z,15.90
2023-04-17T15:58:57.270Z,15.90
2023-04-17T16:01:24.178Z,16.10
2023-04-17T16:03:51.143Z,16.30
2023-04-17T16:06:19.119Z,16.30
2023-04-17T16:08:46.761Z,16.40
2023-04-17T16:11:13.858Z,16.50
2023-04-17T16:13:40.594Z,16.60
2023-04-17T16:16:07.779Z,16.60
2023-04-17T16:18:34.586Z,16.60
2023-04-17T16:21:01.331Z,16.40
2023-04-17T16:23:28.099Z,16.50
2023-04-17T16:25:55.726Z,16.50
2023-04-17T16:28:24.376Z,16.20
2023-04-17T16:30:51.213Z,16.20
2023-04-17T16:33:17.939Z,16.30
2023-04-17T16:35:44.632Z,16.30
2023-04-17T16:38:11.660Z,16.30
2023-04-17T16:40:39.284Z,16.50
2023-04-17T16:43:06.239Z,16.20
2023-04-17T16:45:32.994Z,16.50
2023-04-17T16:47:59.797Z,16.20
2023-04-17T16:50:26.663Z,16.20
2023-04-17T16:52:53.469Z,16.40
2023-04-17T16:55:20.170Z,16.30
2023-04-17T17:00:15.066Z,16.00
2023-04-17T17:02:42.128Z,16.00
2023-04-17T17:05:09.571Z,15.80
2023-04-17T17:07:36.314Z,15.80
2023-04-17T17:10:03.794Z,15.70
2023-04-17T17:12:30.887Z,15.70
2023-04-17T17:14:58.127Z,15.70
2023-04-17T17:17:25.757Z,15.70
2023-04-17T17:19:52.785Z,15.80
2023-04-17T17:22:22.453Z,15.70
2023-04-17T17:24:49.292Z,15.70
2023-04-17T17:27:16.096Z,15.50
2023-04-17T17:29:42.820Z,15.50
2023-04-17T17:32:09.826Z,15.40
2023-04-17T17:34:37.984Z,15.30
2023-04-17T17:37:04.866Z,15.10
2023-04-17T17:39:31.598Z,15.00
2023-04-17T17:41:58.451Z,15.00
2023-04-17T17:44:25.287Z,14.90
2023-04-17T17:46:52.026Z,14.90
2023-04-17T17:49:18.844Z,14.90
2023-04-17T17:51:45.676Z,14.80
2023-04-17T17:54:12.801Z,14.80
2023-04-17T17:56:39.865Z,14.70
2023-04-17T17:59:07.659Z,14.70
2023-04-17T18:01:34.573Z,14.60
2023-04-17T18:04:01.551Z,14.70
2023-04-17T18:06:28.679Z,14.60
2023-04-17T18:08:55.494Z,14.40
2023-04-17T18:11:22.880Z,14.50
2023-04-17T18:13:51.330Z,14.40
2023-04-17T18:16:18.179Z,14.40
2023-04-17T18:18:45.033Z,14.30
2023-04-17T18:21:12.700Z,14.30
2023-04-17T18:23:41.437Z,14.20
2023-04-17T18:26:08.209Z,14.20
2023-04-17T18:28:36.029Z,14.20
2023-04-17T18:31:03.871Z,14.10
2023-04-17T18:33:30.899Z,14.10
2023-04-17T18:36:00.761Z,13.90
2023-04-17T18:38:27.525Z,14.00
2023-04-17T18:40:57.487Z,13.80
2023-04-17T18:43:25.717Z,13.80
2023-04-17T18:45:52.433Z,13.60
2023-04-17T18:48:19.432Z,13.60
2023-04-17T18:50:46.332Z,13.60
2023-04-17T18:53:13.107Z,13.40
2023-04-17T18:55:40.387Z,13.50
2023-04-17T18:58:07.254Z,13.40
2023-04-17T19:00:34.070Z,13.30
2023-04-17T19:03:00.880Z,13.40
2023-04-17T19:05:27.780Z,13.40
2023-04-17T19:07:55.337Z,13.30
2023-04-17T19:10:23.332Z,13.20
2023-04-17T19:12:50.433Z,13.20
2023-04-17T19:15:17.624Z,13.20
2023-04-17T19:17:44.381Z,13.20
2023-04-17T19:20:12.093Z,13.10
2023-04-17T19:22:38.930Z,13.10
2023-04-17T19:25:06.315Z,13.00
2023-04-17T19:27:33.238Z,13.00
2023-04-17T19:30:00.072Z,13.00
2023-04-17T19:32:27.076Z,12.80
2023-04-17T19:34:53.834Z,12.90
2023-04-17T19:37:20.746Z,13.00
2023-04-17T19:39:48.947Z,12.90
2023-04-17T19:42:15.732Z,12.70
2023-04-17T19:44:42.489Z,12.70
2023-04-17T19:47:09.215Z,12.90
2023-04-17T19:49:36.022Z,12.70
2023-04-17T19:52:02.953Z,12.70
2023-04-17T19:54:29.769Z,12.60
2023-04-17T19:56:56.547Z,12.50
2023-04-17T19:59:23.380Z,12.50
2023-04-17T20:01:51.308Z,12.60
2023-04-17T20:04:18.346Z,12.40
2023-04-17T20:06:45.364Z,12.50
2023-04-17T20:09:19.841Z,12.40
2023-04-17T20:11:46.890Z,12.40
2023-04-17T20:14:15.560Z,12.40
2023-04-17T20:16:44.845Z,12.40
2023-04-17T20:19:12.429Z,12.40
2023-04-17T20:21:39.416Z,12.40
2023-04-17T20:24:06.317Z,12.30
2023-04-17T20:26:33.443Z,12.30
2023-04-17T20:29:01.144Z,12.30
2023-04-17T20:31:28.591Z,12.30
2023-04-17T20:33:55.437Z,12.30
2023-04-17T20:36:22.536Z,12.30
2023-04-17T20:38:49.450Z,12.20
2023-04-17T20:41:16.193Z,12.10
2023-04-17T20:43:42.949Z,12.10
2023-04-17T20:46:12.564Z,12.10
2023-04-17T20:48:39.278Z,12.10
2023-04-17T20:51:06.024Z,12.00
2023-04-17T20:53:32.837Z,12.00
2023-04-17T20:55:59.603Z,11.90
2023-04-17T20:58:26.405Z,11.90
2023-04-17T21:01:01.164Z,11.90
2023-04-17T21:03:32.871Z,11.80
2023-04-17T21:06:00.625Z,11.80
2023-04-17T21:08:27.471Z,11.80
2023-04-17T21:10:54.316Z,11.80
2023-04-17T21:13:22.706Z,11.70
2023-04-17T21:15:49.577Z,11.60
2023-04-17T21:18:16.396Z,11.60
2023-04-17T21:20:43.269Z,11.60
2023-04-17T21:23:10.561Z,11.60
2023-04-17T21:25:37.360Z,11.50
2023-04-17T21:28:04.276Z,11.50
2023-04-17T21:30:31.213Z,11.50
2023-04-17T21:32:58.705Z,11.50
2023-04-17T21:35:25.521Z,11.60
2023-04-17T21:37:52.264Z,11.50
2023-04-17T21:40:19.119Z,11.40
2023-04-17T21:42:45.969Z,11.40
2023-04-17T21:45:14.503Z,11.40
2023-04-17T21:47:41.364Z,11.30
2023-04-17T21:50:10.126Z,11.40
2023-04-17T21:52:37.183Z,11.40
2023-04-17T21:55:05.665Z,11.40
2023-04-17T21:57:32.488Z,11.40
2023-04-17T21:59:59.785Z,11.30
2023-04-17T22:02:26.696Z,11.30
2023-04-17T22:04:53.884Z,11.20
2023-04-17T22:07:21.540Z,11.20
2023-04-17T22:09:48.901Z,11.20
2023-04-17T22:12:21.028Z,11.20
2023-04-17T22:14:48.727Z,11.20
2023-04-17T22:17:15.936Z,11.20
2023-04-17T22:19:42.732Z,11.20
2023-04-17T22:23:24.765Z,11.10
2023-04-17T22:26:29.106Z,11.10
2023-04-17T22:29:33.050Z,11.00
2023-04-17T22:32:37.336Z,10.90
2023-04-17T22:36:00.346Z,10.90
2023-04-17T22:39:04.648Z,10.80
2023-04-17T22:42:08.911Z,10.90
2023-04-17T22:44:54.258Z,10.80
2023-04-17T22:47:59.241Z,10.90
2023-04-17T22:51:22.750Z,10.80
2023-04-17T22:54:19.156Z,10.90
2023-04-17T22:57:07.170Z,10.70
2023-04-17T22:59:53.317Z,10.70
2023-04-17T23:02:57.593Z,10.60
2023-04-17T23:05:42.868Z,10.60
2023-04-17T23:08:09.619Z,10.60
2023-04-17T23:10:36.347Z,10.60
2023-04-17T23:13:03.108Z,10.50
2023-04-17T23:15:29.871Z,10.50
2023-04-17T23:17:56.663Z,10.50
2023-04-17T23:20:25.037Z,10.60
2023-04-17T23:22:51.786Z,10.60
2023-04-17T23:25:18.949Z,10.60
2023-04-17T23:27:45.665Z,10.60
2023-04-17T23:30:12.948Z,10.50
2023-04-17T23:32:41.656Z,10.50
2023-04-17T23:35:10.212Z,10.50
2023-04-17T23:37:36.964Z,10.40
2023-04-17T23:40:04.138Z,10.30
2023-04-17T23:42:31.588Z,10.40
2023-04-17T23:44:58.532Z,10.30
2023-04-17T23:47:25.367Z,10.30
2023-04-17T23:49:52.149Z,10.30
2023-04-17T23:52:18.987Z,10.30
2023-04-17T23:54:45.686Z,10.20
2023-04-17T23:57:12.392Z,10.20
2023-04-17T23:59:39.114Z,10.10
